Time;durP1;ratioP1;P1;durP2;ratioP2;P2;SDS_P1;SDS_P2;PMS_P1;PMS_P2;Temp;Humidity;BMP_temperature;BMP_pressure;BME280_temperature;BME280_humidity;BME280_pressure;Samples;Min_cycle;Max_cycle;Signal;HPM_P1;HPM_P2
2021/05/20 00:00:00;;;;;;;4.57;1.90;;;;;;;;;;5095368;28;20284;-75
2021/05/20 00:02:27;;;;;;;4.07;2.00;;;;;;;;;;5094240;28;20229;-75
2021/05/20 00:04:54;;;;;;;3.80;2.10;;;;;;;;;;5094585;28;20586;-75
2021/05/20 00:07:21;;;;;;;3.20;1.90;;;;;;;;;;5095276;28;20235;-76
2021/05/20 00:09:48;;;;;;;4.43;2.13;;;;;;;;;;5094751;28;20193;-75
2021/05/20 00:12:15;;;;;;;5.67;1.90;;;;;;;;;;5093857;28;20318;-75
2021/05/20 00:14:41;;;;;;;6.43;2.13;;;;;;;;;;5094157;28;20206;-75
2021/05/20 00:17:08;;;;;;;4.40;2.10;;;;;;;;;;5094589;28;20236;-75
2021/05/20 00:19:35;;;;;;;4.10;2.00;;;;;;;;;;5094643;28;20292;-76
2021/05/20 00:22:03;;;;;;;5.33;2.30;;;;;;;;;;5093896;28;20287;-75
2021/05/20 00:24:30;;;;;;;3.23;2.00;;;;;;;;;;5094863;28;20287;-75
2021/05/20 00:26:56;;;;;;;5.30;2.07;;;;;;;;;;5093019;28;20215;-74
2021/05/20 00:29:23;;;;;;;3.60;2.07;;;;;;;;;;5093381;28;20281;-76
2021/05/20 00:31:50;;;;;;;7.13;1.90;;;;;;;;;;5093965;28;20293;-75
2021/05/20 00:34:16;;;;;;;3.67;2.00;;;;;;;;;;5093969;28;20331;-76
2021/05/20 00:36:43;;;;;;;3.77;1.90;;;;;;;;;;5094615;28;20315;-75
2021/05/20 00:39:10;;;;;;;5.30;1.80;;;;;;;;;;5093723;28;20226;-75
2021/05/20 00:41:37;;;;;;;3.87;1.93;;;;;;;;;;5094009;28;20669;-75
2021/05/20 00:44:04;;;;;;;3.23;2.00;;;;;;;;;;5093433;28;20251;-75
2021/05/20 00:46:31;;;;;;;5.23;1.93;;;;;;;;;;5094187;28;20687;-75
2021/05/20 00:48:57;;;;;;;3.80;2.10;;;;;;;;;;5093806;28;20668;-76
2021/05/20 00:51:24;;;;;;;4.83;2.07;;;;;;;;;;5093930;28;20570;-75
2021/05/20 00:53:51;;;;;;;3.60;1.97;;;;;;;;;;5094171;28;20259;-75
2021/05/20 00:56:20;;;;;;;4.50;2.10;;;;;;;;;;5093408;28;20259;-75
2021/05/20 00:58:47;;;;;;;3.27;1.80;;;;;;;;;;5093132;28;20234;-75
2021/05/20 01:01:14;;;;;;;5.60;2.20;;;;;;;;;;5093105;28;20244;-75
2021/05/20 01:03:41;;;;;;;4.40;2.30;;;;;;;;;;5093347;28;20607;-75
2021/05/20 01:06:08;;;;;;;4.87;2.10;;;;;;;;;;5093328;28;20311;-76
2021/05/20 01:08:35;;;;;;;5.70;2.00;;;;;;;;;;5081691;28;20231;-75
2021/05/20 01:11:02;;;;;;;5.37;1.93;;;;;;;;;;5092954;28;20285;-75
2021/05/20 01:13:29;;;;;;;3.50;2.00;;;;;;;;;;5093294;28;20366;-75
2021/05/20 01:15:56;;;;;;;4.97;2.10;;;;;;;;;;5093246;28;20316;-75
2021/05/20 01:18:23;;;;;;;5.43;2.27;;;;;;;;;;5092514;28;20297;-75
2021/05/20 01:20:51;;;;;;;6.47;2.10;;;;;;;;;;5093493;28;20313;-76
2021/05/20 01:23:18;;;;;;;5.10;2.20;;;;;;;;;;5092994;28;20245;-75
2021/05/20 01:25:46;;;;;;;5.47;2.27;;;;;;;;;;5093590;28;20245;-75
2021/05/20 01:28:16;;;;;;;5.90;2.23;;;;;;;;;;5093004;28;20309;-76
2021/05/20 01:30:43;;;;;;;5.90;2.30;;;;;;;;;;5094059;28;20321;-75
2021/05/20 01:33:10;;;;;;;5.13;2.00;;;;;;;;;;5093038;28;20226;-75
2021/05/20 01:35:38;;;;;;;4.17;1.93;;;;;;;;;;5090680;28;20861;-75
2021/05/20 01:40:55;;;;;;;6.70;2.47;;;;;;;;;;5084606;28;20217;-74
2021/05/20 01:43:22;;;;;;;3.20;2.20;;;;;;;;;;5092997;28;20706;-75
2021/05/20 01:45:57;;;;;;;8.10;2.33;;;;;;;;;;5088903;28;20711;-75
2021/05/20 01:48:24;;;;;;;7.13;2.77;;;;;;;;;;5092317;28;20212;-76
2021/05/20 01:50:51;;;;;;;4.67;2.37;;;;;;;;;;5092799;28;20210;-75
2021/05/20 01:53:18;;;;;;;5.07;1.93;;;;;;;;;;5092914;28;20222;-75
2021/05/20 01:55:45;;;;;;;3.47;2.30;;;;;;;;;;5091819;28;20732;-75
2021/05/20 01:58:12;;;;;;;4.30;2.30;;;;;;;;;;5092535;28;20282;-75
2021/05/20 02:00:38;;;;;;;7.77;2.50;;;;;;;;;;5092956;28;20259;-75
2021/05/20 02:03:05;;;;;;;3.60;2.30;;;;;;;;;;5092571;28;20296;-75
2021/05/20 02:05:32;;;;;;;3.60;2.07;;;;;;;;;;5092321;28;20277;-75
2021/05/20 02:07:58;;;;;;;7.70;2.40;;;;;;;;;;5092500;28;20347;-75
2021/05/20 02:10:26;;;;;;;5.13;2.40;;;;;;;;;;5092347;28;20709;-75
2021/05/20 02:12:53;;;;;;;2.90;2.10;;;;;;;;;;5091948;28;20332;-75
2021/05/20 02:15:20;;;;;;;3.90;2.30;;;;;;;;;;5091403;28;20301;-75
2021/05/20 02:17:47;;;;;;;3.93;2.30;;;;;;;;;;5070897;28;20233;-74
2021/05/20 02:20:14;;;;;;;5.80;2.30;;;;;;;;;;5086281;28;20229;-75
2021/05/20 02:22:41;;;;;;;5.73;2.30;;;;;;;;;;5091702;28;20209;-74
2021/05/20 02:25:09;;;;;;;4.07;2.70;;;;;;;;;;5092456;28;20210;-75
2021/05/20 02:27:36;;;;;;;5.90;2.80;;;;;;;;;;5092372;28;20257;-75
2021/05/20 02:30:04;;;;;;;5.13;2.60;;;;;;;;;;5092407;28;20704;-75
2021/05/20 02:32:30;;;;;;;5.17;2.40;;;;;;;;;;5092060;28;20675;-76
2021/05/20 02:34:57;;;;;;;6.77;2.50;;;;;;;;;;5092071;28;20232;-75
2021/05/20 02:37:24;;;;;;;5.03;2.60;;;;;;;;;;5090984;28;20284;-75
2021/05/20 02:39:51;;;;;;;7.47;3.07;;;;;;;;;;5091439;28;20284;-75
2021/05/20 02:42:17;;;;;;;6.93;2.83;;;;;;;;;;5092189;28;20297;-75
2021/05/20 02:44:45;;;;;;;4.93;2.80;;;;;;;;;;5091712;28;20705;-76
2021/05/20 02:47:11;;;;;;;5.03;2.90;;;;;;;;;;5092094;28;20287;-75
2021/05/20 02:49:39;;;;;;;4.67;2.27;;;;;;;;;;5091569;28;20677;-76
2021/05/20 02:52:06;;;;;;;3.27;2.37;;;;;;;;;;5091451;28;20231;-76
2021/05/20 02:54:33;;;;;;;4.90;2.80;;;;;;;;;;5091397;28;20238;-76
2021/05/20 02:56:59;;;;;;;7.07;2.97;;;;;;;;;;5091442;28;20313;-75
2021/05/20 02:59:26;;;;;;;4.97;2.63;;;;;;;;;;5092119;28;20686;-76
2021/05/20 03:02:02;;;;;;;4.97;2.37;;;;;;;;;;5092030;28;20201;-75
2021/05/20 03:04:28;;;;;;;4.17;2.53;;;;;;;;;;5091527;28;20209;-75
2021/05/20 03:06:55;;;;;;;7.60;2.63;;;;;;;;;;5091485;28;20291;-75
2021/05/20 03:09:22;;;;;;;5.40;2.67;;;;;;;;;;5091336;28;20241;-76
2021/05/20 03:11:48;;;;;;;3.23;2.40;;;;;;;;;;5091323;28;20239;-75
2021/05/20 03:14:15;;;;;;;6.20;2.73;;;;;;;;;;5091216;28;20289;-75
2021/05/20 03:16:42;;;;;;;6.87;3.03;;;;;;;;;;5091914;28;20313;-74
2021/05/20 03:19:10;;;;;;;5.17;3.10;;;;;;;;;;5090979;28;20290;-75
2021/05/20 03:21:37;;;;;;;5.43;2.80;;;;;;;;;;5091213;28;20280;-75
2021/05/20 03:24:04;;;;;;;7.50;2.90;;;;;;;;;;5091592;28;20234;-75
2021/05/20 03:26:31;;;;;;;4.53;2.97;;;;;;;;;;5090779;28;20240;-75
2021/05/20 03:28:58;;;;;;;4.87;2.80;;;;;;;;;;5091714;28;20203;-75
2021/05/20 03:31:25;;;;;;;5.87;2.73;;;;;;;;;;5090628;28;20286;-75
2021/05/20 03:33:52;;;;;;;9.40;3.40;;;;;;;;;;5091764;28;20290;-75
2021/05/20 03:36:19;;;;;;;5.10;3.00;;;;;;;;;;5090857;28;20218;-75
2021/05/20 03:38:46;;;;;;;7.80;2.80;;;;;;;;;;5091900;28;20230;-76
2021/05/20 03:41:13;;;;;;;6.47;2.87;;;;;;;;;;5091273;28;20343;-75
2021/05/20 03:43:39;;;;;;;6.37;2.80;;;;;;;;;;5091275;28;20277;-75
2021/05/20 03:46:06;;;;;;;3.23;2.30;;;;;;;;;;5091018;28;20620;-75
2021/05/20 03:48:33;;;;;;;5.17;3.10;;;;;;;;;;5091141;28;20202;-75
2021/05/20 03:51:01;;;;;;;5.30;2.77;;;;;;;;;;5091009;28;20285;-75
2021/05/20 03:53:30;;;;;;;3.00;2.53;;;;;;;;;;5090678;28;20349;-75
2021/05/20 03:55:57;;;;;;;5.67;2.80;;;;;;;;;;5091233;28;20218;-75
2021/05/20 03:58:24;;;;;;;5.37;3.00;;;;;;;;;;5090755;28;20317;-75
2021/05/20 04:00:51;;;;;;;5.73;2.30;;;;;;;;;;5091162;28;20344;-75
2021/05/20 04:03:25;;;;;;;3.87;2.60;;;;;;;;;;5090847;28;20243;-75
2021/05/20 04:05:52;;;;;;;4.83;2.53;;;;;;;;;;5090281;28;20960;-76
2021/05/20 04:08:19;;;;;;;4.37;3.00;;;;;;;;;;5091056;28;20240;-75
2021/05/20 04:10:47;;;;;;;5.47;2.83;;;;;;;;;;5090921;28;20286;-75
2021/05/20 04:13:15;;;;;;;6.70;2.60;;;;;;;;;;5090885;28;20309;-75
2021/05/20 04:15:42;;;;;;;4.73;2.70;;;;;;;;;;5090701;28;20360;-75
2021/05/20 04:18:09;;;;;;;4.37;2.60;;;;;;;;;;5090642;28;20200;-75
2021/05/20 04:20:35;;;;;;;5.40;2.53;;;;;;;;;;5090189;28;20259;-75
2021/05/20 04:23:02;;;;;;;5.00;2.40;;;;;;;;;;5090599;28;20201;-75
2021/05/20 04:25:28;;;;;;;6.60;2.70;;;;;;;;;;5089765;28;20190;-76
2021/05/20 04:27:56;;;;;;;4.47;2.43;;;;;;;;;;5090624;28;20260;-75
2021/05/20 04:30:23;;;;;;;4.83;2.20;;;;;;;;;;5090264;28;20733;-75
2021/05/20 04:32:50;;;;;;;5.57;2.17;;;;;;;;;;5089685;28;20198;-75
2021/05/20 04:35:17;;;;;;;5.67;1.93;;;;;;;;;;5090634;28;20291;-76
2021/05/20 04:37:44;;;;;;;5.07;2.37;;;;;;;;;;5092464;28;20311;-75
2021/05/20 04:40:11;;;;;;;5.83;2.17;;;;;;;;;;5094303;28;20293;-75
2021/05/20 04:42:38;;;;;;;4.73;2.03;;;;;;;;;;5094412;28;20282;-76
2021/05/20 04:45:07;;;;;;;4.90;2.00;;;;;;;;;;5093852;28;20241;-76
2021/05/20 04:47:34;;;;;;;3.33;2.10;;;;;;;;;;5092918;28;20233;-75
2021/05/20 04:50:01;;;;;;;4.07;2.00;;;;;;;;;;5093766;28;20230;-75
2021/05/20 04:52:27;;;;;;;4.83;1.87;;;;;;;;;;5093771;28;20300;-76
2021/05/20 04:54:54;;;;;;;7.80;2.20;;;;;;;;;;5093485;28;20760;-75
2021/05/20 04:57:21;;;;;;;4.83;1.50;;;;;;;;;;5093748;28;20311;-75
2021/05/20 04:59:47;;;;;;;3.90;1.60;;;;;;;;;;5093633;28;20299;-75
2021/05/20 05:02:15;;;;;;;4.47;1.27;;;;;;;;;;5093317;28;20689;-75
2021/05/20 05:04:42;;;;;;;3.03;1.20;;;;;;;;;;5094132;28;20732;-75
2021/05/20 05:07:08;;;;;;;2.87;1.10;;;;;;;;;;5094034;28;20202;-76
2021/05/20 05:09:35;;;;;;;3.17;1.20;;;;;;;;;;5093234;28;20283;-76
2021/05/20 05:12:02;;;;;;;4.13;1.20;;;;;;;;;;5093244;28;20199;-75
2021/05/20 05:14:28;;;;;;;3.23;1.30;;;;;;;;;;5093628;28;20604;-75
2021/05/20 05:16:55;;;;;;;3.40;1.20;;;;;;;;;;5091902;28;20304;-75
2021/05/20 05:19:23;;;;;;;4.70;1.23;;;;;;;;;;5093236;28;20287;-75
2021/05/20 05:21:49;;;;;;;1.93;1.17;;;;;;;;;;5093656;28;20676;-74
2021/05/20 05:24:16;;;;;;;3.00;1.13;;;;;;;;;;5093712;28;20598;-75
2021/05/20 05:26:43;;;;;;;4.50;1.17;;;;;;;;;;5093563;28;20308;-74
2021/05/20 05:29:09;;;;;;;3.83;1.20;;;;;;;;;;5092962;28;20617;-74
2021/05/20 05:31:36;;;;;;;3.77;1.00;;;;;;;;;;5092903;28;20277;-74
2021/05/20 05:34:03;;;;;;;5.03;1.30;;;;;;;;;;5093233;28;20225;-75
2021/05/20 05:36:31;;;;;;;3.40;1.00;;;;;;;;;;5092865;28;20412;-75
2021/05/20 05:38:59;;;;;;;3.83;1.10;;;;;;;;;;5092649;28;20704;-74
2021/05/20 05:41:26;;;;;;;3.47;1.07;;;;;;;;;;5093275;28;20200;-75
2021/05/20 05:43:52;;;;;;;4.00;1.30;;;;;;;;;;5093232;28;20288;-74
2021/05/20 05:46:19;;;;;;;2.97;1.27;;;;;;;;;;5091109;28;20277;-75
2021/05/20 05:48:48;;;;;;;2.73;1.20;;;;;;;;;;5091155;28;20212;-76
2021/05/20 05:51:16;;;;;;;4.20;1.30;;;;;;;;;;5093119;28;20650;-77
2021/05/20 05:53:44;;;;;;;3.43;1.73;;;;;;;;;;5093219;28;20571;-78
2021/05/20 05:56:10;;;;;;;4.10;1.63;;;;;;;;;;5087298;28;20727;-80
2021/05/20 05:58:37;;;;;;;3.83;1.53;;;;;;;;;;5094852;28;20241;-79
2021/05/20 06:01:04;;;;;;;4.53;1.40;;;;;;;;;;5112628;28;20723;-80
2021/05/20 06:03:32;;;;;;;4.53;1.57;;;;;;;;;;5078003;28;20619;-80
2021/05/20 06:05:59;;;;;;;5.53;1.40;;;;;;;;;;5091551;28;20198;-81
2021/05/20 06:08:25;;;;;;;4.33;1.40;;;;;;;;;;5090607;28;20294;-81
2021/05/20 06:10:53;;;;;;;4.50;1.53;;;;;;;;;;5091849;28;20628;-81
2021/05/20 06:13:20;;;;;;;3.67;1.40;;;;;;;;;;5091514;28;20321;-81
2021/05/20 06:15:47;;;;;;;6.00;1.60;;;;;;;;;;5091510;28;20254;-80
2021/05/20 06:18:13;;;;;;;2.03;1.20;;;;;;;;;;5091303;28;20260;-80
2021/05/20 06:20:40;;;;;;;4.80;1.70;;;;;;;;;;5091253;28;20209;-80
2021/05/20 06:23:08;;;;;;;6.00;1.77;;;;;;;;;;5092057;28;20619;-80
2021/05/20 06:25:35;;;;;;;5.17;1.57;;;;;;;;;;5091073;28;20191;-81
2021/05/20 06:28:06;;;;;;;4.23;1.83;;;;;;;;;;5091998;28;20268;-79
2021/05/20 06:30:35;;;;;;;4.00;1.80;;;;;;;;;;5090776;28;20205;-80
2021/05/20 06:33:02;;;;;;;3.77;1.80;;;;;;;;;;5083562;28;20305;-80
2021/05/20 06:35:28;;;;;;;3.93;1.60;;;;;;;;;;5091556;28;20245;-80
2021/05/20 06:37:55;;;;;;;5.27;1.83;;;;;;;;;;5091143;28;20906;-80
2021/05/20 06:40:22;;;;;;;4.90;2.17;;;;;;;;;;5091226;28;20198;-80
2021/05/20 06:42:48;;;;;;;3.63;2.10;;;;;;;;;;5090323;28;20233;-80
2021/05/20 06:45:16;;;;;;;7.00;2.20;;;;;;;;;;5090726;28;20738;-79
2021/05/20 06:47:43;;;;;;;5.83;2.67;;;;;;;;;;5092055;28;20280;-79
2021/05/20 06:50:10;;;;;;;4.10;1.97;;;;;;;;;;5090254;28;20285;-79
2021/05/20 06:52:38;;;;;;;2.67;1.80;;;;;;;;;;5092052;28;20693;-79
2021/05/20 06:55:06;;;;;;;5.57;2.23;;;;;;;;;;5091729;28;20289;-79
2021/05/20 06:59:56;;;;;;;5.07;2.47;;;;;;;;;;5089286;28;20739;-78
2021/05/20 07:00:21;;;;;;;6.83;2.40;;;;;;;;;;5082977;28;20709;-78
2021/05/20 07:02:48;;;;;;;5.03;2.20;;;;;;;;;;5078391;28;20226;-78
2021/05/20 07:05:15;;;;;;;3.50;2.27;;;;;;;;;;5084736;28;20287;-78
2021/05/20 07:07:42;;;;;;;3.57;2.20;;;;;;;;;;5090412;28;20249;-78
2021/05/20 07:10:09;;;;;;;6.27;2.40;;;;;;;;;;5082025;28;20198;-78
2021/05/20 07:15:17;;;;;;;6.00;2.40;;;;;;;;;;5090349;28;20221;-78
2021/05/20 07:17:45;;;;;;;5.37;2.33;;;;;;;;;;5091559;28;20224;-79
2021/05/20 07:20:12;;;;;;;6.00;2.70;;;;;;;;;;5090722;28;20666;-79
2021/05/20 07:22:39;;;;;;;8.37;2.40;;;;;;;;;;5074939;28;20210;-79
2021/05/20 07:25:06;;;;;;;6.03;2.30;;;;;;;;;;5091091;28;20923;-79
2021/05/20 07:27:33;;;;;;;4.87;2.30;;;;;;;;;;5090395;28;20248;-79
2021/05/20 07:30:00;;;;;;;5.53;2.50;;;;;;;;;;5091281;28;20286;-80
2021/05/20 07:32:27;;;;;;;6.57;2.40;;;;;;;;;;5087646;28;20229;-79
2021/05/20 07:34:55;;;;;;;6.50;2.60;;;;;;;;;;5076844;28;20238;-80
2021/05/20 07:37:22;;;;;;;7.33;2.60;;;;;;;;;;5091214;28;20221;-79
2021/05/20 07:39:48;;;;;;;7.07;3.47;;;;;;;;;;5090442;28;20684;-80
2021/05/20 07:42:15;;;;;;;4.47;2.20;;;;;;;;;;5090224;28;20226;-81
2021/05/20 07:44:42;;;;;;;8.67;2.40;;;;;;;;;;5090928;28;20290;-80
2021/05/20 07:47:09;;;;;;;6.20;2.43;;;;;;;;;;5090687;28;20568;-81
2021/05/20 07:49:37;;;;;;;6.27;2.33;;;;;;;;;;5090146;28;20706;-81
2021/05/20 07:52:06;;;;;;;7.73;2.43;;;;;;;;;;5090655;28;20230;-81
2021/05/20 07:54:33;;;;;;;5.37;2.27;;;;;;;;;;5090628;28;20230;-81
2021/05/20 07:57:00;;;;;;;5.13;2.10;;;;;;;;;;5089831;28;20214;-81
2021/05/20 07:59:27;;;;;;;7.50;1.93;;;;;;;;;;5091151;28;20202;-80
2021/05/20 08:02:01;;;;;;;4.57;2.70;;;;;;;;;;5089338;28;20245;-80
2021/05/20 08:04:29;;;;;;;5.00;2.27;;;;;;;;;;5088231;28;20326;-78
2021/05/20 08:07:01;;;;;;;5.83;2.67;;;;;;;;;;5089518;28;20278;-78
2021/05/20 08:09:32;;;;;;;7.80;2.60;;;;;;;;;;5090217;28;20202;-80
2021/05/20 08:11:59;;;;;;;6.30;2.00;;;;;;;;;;5091228;28;20202;-80
2021/05/20 08:14:25;;;;;;;5.67;2.10;;;;;;;;;;5094170;28;20289;-80
2021/05/20 08:16:52;;;;;;;4.80;2.20;;;;;;;;;;5094424;28;20301;-79
2021/05/20 08:19:19;;;;;;;5.07;1.67;;;;;;;;;;5093933;28;20222;-79
2021/05/20 08:21:46;;;;;;;4.60;1.90;;;;;;;;;;5088871;28;20244;-79
2021/05/20 08:24:13;;;;;;;5.80;1.80;;;;;;;;;;5093542;28;20241;-80
2021/05/20 08:26:40;;;;;;;4.23;1.83;;;;;;;;;;5094028;28;20293;-80
2021/05/20 08:29:07;;;;;;;5.33;1.67;;;;;;;;;;5094118;28;20285;-79
2021/05/20 08:31:35;;;;;;;4.63;1.30;;;;;;;;;;5094258;28;20674;-80
2021/05/20 08:34:01;;;;;;;4.00;1.50;;;;;;;;;;5088539;28;20225;-79
2021/05/20 08:36:28;;;;;;;3.37;1.37;;;;;;;;;;5093532;28;20247;-80
2021/05/20 08:38:55;;;;;;;6.43;1.60;;;;;;;;;;5093541;28;20206;-80
2021/05/20 08:41:22;;;;;;;3.97;1.33;;;;;;;;;;5093261;28;20214;-80
2021/05/20 08:43:49;;;;;;;5.97;1.43;;;;;;;;;;5094120;28;20277;-80
2021/05/20 08:46:22;;;;;;;3.87;1.20;;;;;;;;;;5091565;28;20202;-79
2021/05/20 08:48:49;;;;;;;4.53;1.30;;;;;;;;;;5088706;28;20195;-80
2021/05/20 08:51:16;;;;;;;4.40;1.40;;;;;;;;;;5080302;28;20219;-80
2021/05/20 08:53:43;;;;;;;4.47;0.93;;;;;;;;;;5093939;28;20202;-79
2021/05/20 08:56:11;;;;;;;2.73;1.20;;;;;;;;;;5093296;28;20237;-80
2021/05/20 08:58:38;;;;;;;3.63;1.10;;;;;;;;;;5088816;28;20199;-80
2021/05/20 09:01:06;;;;;;;3.90;1.00;;;;;;;;;;5093423;28;20237;-80
2021/05/20 09:03:33;;;;;;;2.97;1.07;;;;;;;;;;5092588;28;20225;-77
2021/05/20 09:06:04;;;;;;;5.73;1.03;;;;;;;;;;5093829;28;20201;-79
2021/05/20 09:08:35;;;;;;;3.20;1.10;;;;;;;;;;5093587;28;20206;-78
2021/05/20 09:11:03;;;;;;;3.43;1.20;;;;;;;;;;5093706;28;20566;-79
2021/05/20 09:13:35;;;;;;;4.63;1.27;;;;;;;;;;5093374;28;20786;-77
2021/05/20 09:16:12;;;;;;;4.20;1.00;;;;;;;;;;5093496;28;20271;-77
2021/05/20 09:18:40;;;;;;;2.67;0.70;;;;;;;;;;5093687;28;20198;-77
2021/05/20 09:21:08;;;;;;;2.63;0.80;;;;;;;;;;5092947;28;20199;-77
2021/05/20 09:23:35;;;;;;;4.20;1.10;;;;;;;;;;5092700;28;20195;-78
2021/05/20 09:26:04;;;;;;;3.23;1.00;;;;;;;;;;5092979;28;20202;-76
2021/05/20 09:28:35;;;;;;;3.33;1.00;;;;;;;;;;5092698;28;20226;-78
2021/05/20 09:31:02;;;;;;;5.57;1.20;;;;;;;;;;5093595;28;20226;-77
2021/05/20 09:33:29;;;;;;;4.97;1.07;;;;;;;;;;5092730;28;20285;-77
2021/05/20 09:35:56;;;;;;;3.90;1.20;;;;;;;;;;5093202;28;20313;-76
2021/05/20 09:38:24;;;;;;;3.03;1.27;;;;;;;;;;5093146;28;20191;-77
2021/05/20 09:40:55;;;;;;;4.30;1.10;;;;;;;;;;5092715;28;20245;-76
2021/05/20 09:43:23;;;;;;;3.27;1.00;;;;;;;;;;5092612;28;20202;-77
2021/05/20 09:45:51;;;;;;;2.67;0.80;;;;;;;;;;5092345;28;20205;-76
2021/05/20 09:48:20;;;;;;;2.80;0.90;;;;;;;;;;5092275;28;20241;-78
2021/05/20 09:50:49;;;;;;;3.07;1.00;;;;;;;;;;5092216;28;20195;-78
2021/05/20 09:53:16;;;;;;;2.87;0.87;;;;;;;;;;5093018;28;20610;-78
2021/05/20 09:55:48;;;;;;;2.00;0.90;;;;;;;;;;5077679;28;20242;-79
2021/05/20 09:58:15;;;;;;;1.77;0.90;;;;;;;;;;5084905;28;20218;-77
2021/05/20 10:00:42;;;;;;;4.53;1.10;;;;;;;;;;5092242;28;20305;-78
2021/05/20 10:03:11;;;;;;;4.13;0.90;;;;;;;;;;5089953;28;20202;-78
2021/05/20 10:05:38;;;;;;;1.60;0.87;;;;;;;;;;5092247;28;20707;-78
2021/05/20 10:08:07;;;;;;;2.10;0.60;;;;;;;;;;5086722;28;20957;-79
2021/05/20 10:10:36;;;;;;;2.47;0.80;;;;;;;;;;5091281;28;20658;-78
2021/05/20 10:13:04;;;;;;;4.80;0.80;;;;;;;;;;5088094;28;20776;-78
2021/05/20 10:15:30;;;;;;;1.90;0.60;;;;;;;;;;5092499;28;20281;-78
2021/05/20 10:17:57;;;;;;;2.67;0.73;;;;;;;;;;5084350;28;20594;-78
2021/05/20 10:20:24;;;;;;;2.90;0.90;;;;;;;;;;5090205;28;20199;-78
2021/05/20 10:22:51;;;;;;;2.37;0.80;;;;;;;;;;5090298;28;20194;-79
2021/05/20 10:25:19;;;;;;;3.63;0.80;;;;;;;;;;5094473;28;20330;-78
2021/05/20 10:27:46;;;;;;;4.30;0.80;;;;;;;;;;5090141;28;20245;-78
2021/05/20 10:30:14;;;;;;;2.57;0.87;;;;;;;;;;5092150;28;20225;-79
2021/05/20 10:32:41;;;;;;;2.03;0.73;;;;;;;;;;5093237;28;20244;-79
2021/05/20 10:35:09;;;;;;;2.40;0.60;;;;;;;;;;5089676;28;20194;-79
2021/05/20 10:37:38;;;;;;;2.25;0.65;;;;;;;;;;5092232;28;20309;-79
2021/05/20 10:40:06;;;;;;;5.95;0.80;;;;;;;;;;5086882;28;20210;-79
2021/05/20 10:42:34;;;;;;;1.08;0.60;;;;;;;;;;5081354;28;20285;-78
2021/05/20 10:45:19;;;;;;;3.05;0.70;;;;;;;;;;5091998;28;20304;-78
2021/05/20 10:48:04;;;;;;;1.60;0.60;;;;;;;;;;5091737;28;20295;-79
2021/05/20 10:50:46;;;;;;;2.00;0.70;;;;;;;;;;5090743;28;20201;-78
2021/05/20 10:53:13;;;;;;;2.63;0.73;;;;;;;;;;5090026;28;20198;-78
2021/05/20 10:55:39;;;;;;;3.05;0.80;;;;;;;;;;5086251;28;20713;-77
2021/05/20 10:58:07;;;;;;;2.25;0.60;;;;;;;;;;5091993;28;20232;-79
2021/05/20 11:00:40;;;;;;;3.58;0.90;;;;;;;;;;5090869;28;20227;-79
2021/05/20 11:03:06;;;;;;;1.95;0.70;;;;;;;;;;5092096;28;20594;-79
2021/05/20 11:05:57;;;;;;;3.47;0.73;;;;;;;;;;5091987;28;20335;-79
2021/05/20 11:08:58;;;;;;;4.68;0.80;;;;;;;;;;5091726;28;20198;-79
2021/05/20 11:11:46;;;;;;;3.65;0.80;;;;;;;;;;5091824;28;20194;-79
2021/05/20 11:14:31;;;;;;;1.42;0.63;;;;;;;;;;5091873;28;20194;-79
2021/05/20 11:16:59;;;;;;;1.92;0.82;;;;;;;;;;5090738;28;20674;-78
2021/05/20 11:19:27;;;;;;;1.77;0.60;;;;;;;;;;5091604;28;20284;-79
2021/05/20 11:22:12;;;;;;;3.42;0.98;;;;;;;;;;5091923;28;20240;-79
2021/05/20 11:24:39;;;;;;;3.67;0.70;;;;;;;;;;5091633;28;20202;-79
2021/05/20 11:27:08;;;;;;;3.23;0.73;;;;;;;;;;5091610;28;20723;-79
2021/05/20 11:29:35;;;;;;;3.57;0.63;;;;;;;;;;5091956;28;20561;-79
2021/05/20 11:32:16;;;;;;;1.50;0.50;;;;;;;;;;5091279;28;20195;-79
2021/05/20 11:35:04;;;;;;;1.73;0.60;;;;;;;;;;5090922;28;20688;-79
2021/05/20 11:37:33;;;;;;;2.30;0.60;;;;;;;;;;5091630;28;20630;-79
2021/05/20 11:40:00;;;;;;;3.20;0.67;;;;;;;;;;5091476;28;20203;-78
2021/05/20 11:42:28;;;;;;;2.03;0.50;;;;;;;;;;5091104;28;20249;-81
2021/05/20 11:44:54;;;;;;;2.63;1.10;;;;;;;;;;5087497;28;20205;-80
2021/05/20 11:47:22;;;;;;;2.57;0.80;;;;;;;;;;5093319;28;20229;-80
2021/05/20 11:49:50;;;;;;;3.83;0.87;;;;;;;;;;5093405;28;20599;-80
2021/05/20 11:52:17;;;;;;;4.00;0.63;;;;;;;;;;5091850;28;20281;-80
2021/05/20 11:54:45;;;;;;;3.97;0.70;;;;;;;;;;5089920;28;20216;-79
2021/05/20 11:57:13;;;;;;;2.50;0.80;;;;;;;;;;5095040;28;20221;-80
2021/05/20 11:59:44;;;;;;;1.67;0.60;;;;;;;;;;5093915;28;20278;-81
2021/05/20 12:02:13;;;;;;;2.87;0.60;;;;;;;;;;5095006;28;20242;-80
2021/05/20 12:04:40;;;;;;;2.73;0.60;;;;;;;;;;5091701;28;20236;-80
2021/05/20 12:07:07;;;;;;;2.20;0.60;;;;;;;;;;5091672;28;20224;-80
2021/05/20 12:09:34;;;;;;;1.60;0.50;;;;;;;;;;5094049;28;20206;-80
2021/05/20 12:12:11;;;;;;;3.93;0.60;;;;;;;;;;5091995;28;20265;-80
2021/05/20 12:14:37;;;;;;;2.97;0.60;;;;;;;;;;5093227;28;20194;-80
2021/05/20 12:17:07;;;;;;;0.70;0.40;;;;;;;;;;5093810;28;20245;-80
2021/05/20 12:19:34;;;;;;;1.80;0.63;;;;;;;;;;5093910;28;20661;-80
2021/05/20 12:22:06;;;;;;;2.73;0.70;;;;;;;;;;5093528;28;20199;-80
2021/05/20 12:24:34;;;;;;;0.93;0.40;;;;;;;;;;5091978;28;20332;-80
2021/05/20 12:27:05;;;;;;;2.90;0.80;;;;;;;;;;5094068;28;20287;-80
2021/05/20 12:29:31;;;;;;;3.40;0.50;;;;;;;;;;5094324;28;20206;-80
2021/05/20 12:31:58;;;;;;;1.93;0.60;;;;;;;;;;5093488;28;20233;-80
2021/05/20 12:34:27;;;;;;;3.27;1.00;;;;;;;;;;5093434;28;20579;-78
2021/05/20 12:37:02;;;;;;;3.20;0.60;;;;;;;;;;5090341;28;20218;-79
2021/05/20 12:39:30;;;;;;;3.07;0.60;;;;;;;;;;5093373;28;20198;-80
2021/05/20 12:41:57;;;;;;;2.33;0.60;;;;;;;;;;5092876;28;20201;-79
2021/05/20 12:44:24;;;;;;;1.43;0.60;;;;;;;;;;5092659;28;20201;-79
2021/05/20 12:46:51;;;;;;;4.07;0.80;;;;;;;;;;5092865;28;20231;-79
2021/05/20 12:49:21;;;;;;;5.57;0.73;;;;;;;;;;5093029;28;20230;-79
2021/05/20 12:51:58;;;;;;;4.07;0.80;;;;;;;;;;5093776;28;20195;-81
2021/05/20 12:54:28;;;;;;;3.10;0.60;;;;;;;;;;5090441;28;20222;-80
2021/05/20 12:57:06;;;;;;;2.53;0.70;;;;;;;;;;5093908;28;20693;-79
2021/05/20 12:59:38;;;;;;;3.50;0.57;;;;;;;;;;5092415;28;20666;-80
2021/05/20 13:02:12;;;;;;;2.40;0.70;;;;;;;;;;5093256;28;20195;-78
2021/05/20 13:04:40;;;;;;;1.30;0.40;;;;;;;;;;5086170;28;20680;-80
2021/05/20 13:07:08;;;;;;;2.67;0.70;;;;;;;;;;5089335;28;20217;-81
2021/05/20 13:09:37;;;;;;;3.47;0.80;;;;;;;;;;5093081;28;20198;-79
2021/05/20 13:12:09;;;;;;;3.13;0.70;;;;;;;;;;5093142;28;20241;-79
2021/05/20 13:14:38;;;;;;;4.32;0.93;;;;;;;;;;5093478;28;20199;-80
2021/05/20 13:22:08;;;;;;;4.72;0.80;;;;;;;;;;5083840;28;20206;-79
2021/05/20 13:23:03;;;;;;;3.13;0.70;;;;;;;;;;5093100;28;20683;-78
2021/05/20 13:25:30;;;;;;;3.85;0.77;;;;;;;;;;5093212;28;20281;-79
2021/05/20 13:27:58;;;;;;;2.80;0.60;;;;;;;;;;5093428;28;20758;-79
2021/05/20 13:30:33;;;;;;;2.78;0.75;;;;;;;;;;5092532;28;20194;-79
2021/05/20 13:33:01;;;;;;;3.60;0.75;;;;;;;;;;5093218;28;20285;-79
2021/05/20 13:35:29;;;;;;;4.13;0.90;;;;;;;;;;5085210;28;20199;-78
2021/05/20 13:37:55;;;;;;;3.15;0.70;;;;;;;;;;5073250;28;20233;-78
2021/05/20 13:40:24;;;;;;;2.93;0.87;;;;;;;;;;5089292;28;20221;-79
2021/05/20 13:42:51;;;;;;;4.18;1.05;;;;;;;;;;5091522;28;20206;-81
2021/05/20 13:45:21;;;;;;;2.63;0.70;;;;;;;;;;5091025;28;20194;-81
2021/05/20 13:47:49;;;;;;;4.17;0.70;;;;;;;;;;5090957;28;20713;-81
2021/05/20 13:50:16;;;;;;;4.67;0.70;;;;;;;;;;5091973;28;20252;-81
2021/05/20 13:52:44;;;;;;;2.92;0.73;;;;;;;;;;5092291;28;20287;-81
2021/05/20 13:55:12;;;;;;;6.37;1.17;;;;;;;;;;5089209;28;20207;-80
2021/05/20 13:57:39;;;;;;;4.97;0.80;;;;;;;;;;5088700;28;20231;-80
2021/05/20 14:00:11;;;;;;;4.53;0.80;;;;;;;;;;5092115;28;20549;-80
2021/05/20 14:02:38;;;;;;;3.60;0.70;;;;;;;;;;5092023;28;20197;-81
2021/05/20 14:05:06;;;;;;;3.83;0.60;;;;;;;;;;5092580;28;20194;-80
2021/05/20 14:07:32;;;;;;;4.40;0.80;;;;;;;;;;5092496;28;20229;-81
2021/05/20 14:09:59;;;;;;;4.07;0.80;;;;;;;;;;5091880;28;20233;-81
2021/05/20 14:12:27;;;;;;;6.13;1.00;;;;;;;;;;5087703;28;20252;-80
2021/05/20 14:14:53;;;;;;;1.90;0.70;;;;;;;;;;5090479;28;20237;-80
2021/05/20 14:17:21;;;;;;;3.47;0.80;;;;;;;;;;5085806;28;20246;-79
2021/05/20 14:19:51;;;;;;;3.10;0.60;;;;;;;;;;5091148;28;20199;-83
2021/05/20 14:22:18;;;;;;;2.57;0.63;;;;;;;;;;5088060;28;20198;-82
2021/05/20 14:24:45;;;;;;;3.87;0.70;;;;;;;;;;5091780;28;20274;-80
2021/05/20 14:27:14;;;;;;;3.17;0.77;;;;;;;;;;5090247;28;20299;-79
2021/05/20 14:29:41;;;;;;;4.00;1.17;;;;;;;;;;5091054;28;20194;-79
2021/05/20 14:32:07;;;;;;;4.57;0.83;;;;;;;;;;5090808;28;20666;-79
2021/05/20 14:34:34;;;;;;;5.50;0.80;;;;;;;;;;5091066;28;20237;-79
2021/05/20 14:37:02;;;;;;;4.90;0.97;;;;;;;;;;5091495;28;20214;-80
2021/05/20 14:39:29;;;;;;;2.37;0.80;;;;;;;;;;5090326;28;20249;-79
2021/05/20 14:41:56;;;;;;;4.47;1.07;;;;;;;;;;5090902;28;20226;-79
2021/05/20 14:44:23;;;;;;;5.50;1.20;;;;;;;;;;5090777;28;20205;-79
2021/05/20 14:46:50;;;;;;;4.23;1.00;;;;;;;;;;5089001;28;20281;-79
2021/05/20 14:51:57;;;;;;;3.00;1.33;;;;;;;;;;5088382;28;20198;-79
2021/05/20 14:54:26;;;;;;;5.30;1.20;;;;;;;;;;5089307;28;20198;-79
2021/05/20 14:57:01;;;;;;;3.17;1.17;;;;;;;;;;5089594;28;20218;-79
2021/05/20 15:05:03;;;;;;;4.07;1.17;;;;;;;;;;5089915;28;20205;-79